Time,TemperatureF,DewpointF,PressureIn,WindDirection,WindDirectionDegrees,WindSpeedMPH,WindSpeedGustMPH,Humidity,HourlyPrecipIn,Conditions,Clouds,dailyrainin,SolarRadiationWatts/m^2,SoftwareType,DateUTC
2013-01-24 00:02:00,53.4,48.3,30.09,NW,310,2.0,7.0,83,0.04,,,0.00,0,HR-IXPWINDi_r2_v1.2.,2013-01-24 08:02:00,
2013-01-24 00:07:00,53.3,48.2,30.08,South,184,2.0,8.0,83,0.08,,,0.01,0,HR-IXPWINDi_r2_v1.2.,2013-01-24 08:07:00,
2013-01-24 00:12:00,53.1,48.3,30.08,SSE,155,0.0,8.0,84,0.09,,,0.02,0,HR-IXPWINDi_r2_v1.2.,2013-01-24 08:12:00,
2013-01-24 00:17:00,53.1,49.0,30.08,SSE,168,2.0,5.0,86,0.09,,,0.02,0,HR-IXPWINDi_r2_v1.2.,2013-01-24 08:17:00,
2013-01-24 00:22:00,53.2,49.1,30.08,ESE,103,1.0,5.0,86,0.05,,,0.02,0,HR-IXPWINDi_r2_v1.2.,2013-01-24 08:22:00,
2013-01-24 00:27:00,53.2,49.4,30.08,South,178,3.0,5.0,87,0.04,,,0.03,0,HR-IXPWINDi_r2_v1.2.,2013-01-24 08:27:00,
2013-01-24 00:33:00,53.1,49.6,30.08,SSW,192,4.0,6.0,88,0.04,,,0.03,0,HR-IXPWINDi_r2_v1.2.,2013-01-24 08:33:00,
2013-01-24 00:38:00,53.1,49.6,30.08,South,188,1.0,7.0,88,0.04,,,0.03,0,HR-IXPWINDi_r2_v1.2.,2013-01-24 08:38:00,
2013-01-24 00:43:00,53.3,50.1,30.08,South,184,4.0,7.0,89,0.04,,,0.03,0,HR-IXPWINDi_r2_v1.2.,2013-01-24 08:43:00,
2013-01-24 00:48:00,53.3,50.1,30.08,South,176,1.0,7.0,89,0.00,,,0.04,0,HR-IXPWINDi_r2_v1.2.,2013-01-24 08:48:00,
2013-01-24 00:53:00,52.9,49.7,30.08,South,178,5.0,7.0,89,0.15,,,0.05,0,HR-IXPWINDi_r2_v1.2.,2013-01-24 08:53:00,
2013-01-24 00:58:00,52.5,49.6,30.09,South,188,6.0,9.0,90,0.20,,,0.07,0,HR-IXPWINDi_r2_v1.2.,2013-01-24 08:58:00,
2013-01-24 01:04:00,52.1,49.5,30.09,SSE,163,4.0,9.0,91,0.10,,,0.07,0,HR-IXPWINDi_r2_v1.2.,2013-01-24 09:04:00,
2013-01-24 01:09:00,52.0,49.4,30.09,South,184,4.0,8.0,91,0.15,,,0.08,0,HR-IXPWINDi_r2_v1.2.,2013-01-24 09:09:00,
2013-01-24 01:14:00,52.1,49.8,30.09,SSW,198,4.0,7.0,92,0.12,,,0.09,0,HR-IXPWINDi_r2_v1.2.,2013-01-24 09:14:00,
2013-01-24 01:19:00,52.1,49.8,30.09,South,176,4.0,7.0,92,0.11,,,0.10,0,HR-IXPWINDi_r2_v1.2.,2013-01-24 09:19:00,
2013-01-24 01:24:00,51.9,49.6,30.09,SSE,162,1.0,7.0,92,0.16,,,0.12,0,HR-IXPWINDi_r2_v1.2.,2013-01-24 09:24:00,
2013-01-24 01:29:00,51.9,49.9,30.09,South,177,2.0,7.0,93,0.18,,,0.13,0,HR-IXPWINDi_r2_v1.2.,2013-01-24 09:29:00,
2013-01-24 01:35:00,51.7,49.7,30.09,South,169,4.0,7.0,93,0.15,,,0.15,0,HR-IXPWINDi_r2_v1.2.,2013-01-24 09:35:00,
2013-01-24 01:40:00,51.7,49.7,30.09,SSW,194,3.0,7.0,93,0.15,,,0.16,0,HR-IXPWINDi_r2_v1.2.,2013-01-24 09:40:00,
2013-01-24 01:45:00,51.6,49.6,30.09,SSW,192,6.0,7.0,93,0.19,,,0.18,0,HR-IXPWINDi_r2_v1.2.,2013-01-24 09:45:00,
2013-01-24 01:50:00,51.6,49.6,30.09,SSE,161,4.0,7.0,93,0.19,,,0.19,0,HR-IXPWINDi_r2_v1.2.,2013-01-24 09:50:00,
2013-01-24 01:55:00,51.6,49.6,30.09,South,185,3.0,7.0,93,0.20,,,0.21,0,HR-IXPWINDi_r2_v1.2.,2013-01-24 09:55:00,
2013-01-24 02:01:00,51.6,49.9,30.09,South,186,3.0,7.0,94,0.12,,,0.22,0,HR-IXPWINDi_r2_v1.2.,2013-01-24 10:01:00,
2013-01-24 02:06:00,51.5,49.8,30.09,SSW,195,5.0,6.0,94,0.16,,,0.23,0,HR-IXPWINDi_r2_v1.2.,2013-01-24 10:06:00,
2013-01-24 02:11:00,51.5,49.8,30.09,South,179,3.0,6.0,94,0.27,,,0.26,0,HR-IXPWINDi_r2_v1.2.,2013-01-24 10:11:00,
2013-01-24 02:16:00,51.6,49.9,30.09,South,178,2.0,6.0,94,0.19,,,0.28,0,HR-IXPWINDi_r2_v1.2.,2013-01-24 10:16:00,
2013-01-24 02:22:00,51.7,50.0,30.09,South,181,0.0,6.0,94,0.14,,,0.29,0,HR-IXPWINDi_r2_v1.2.,2013-01-24 10:22:00,
2013-01-24 02:26:00,52.0,50.3,30.09,SSW,196,3.0,6.0,94,0.10,,,0.29,0,HR-IXPWINDi_r2_v1.2.,2013-01-24 10:26:00,
2013-01-24 02:32:00,52.0,50.3,30.09,SSW,194,2.0,6.0,94,0.06,,,0.30,0,HR-IXPWINDi_r2_v1.2.,2013-01-24 10:32:00,
2013-01-24 02:37:00,51.9,50.2,30.08,South,191,2.0,7.0,94,0.12,,,0.31,0,HR-IXPWINDi_r2_v1.2.,2013-01-24 10:37:00,
2013-01-24 02:42:00,51.9,50.2,30.08,South,173,3.0,7.0,94,0.09,,,0.31,0,HR-IXPWINDi_r2_v1.2.,2013-01-24 10:42:00,
2013-01-24 02:48:00,51.9,50.2,30.08,SW,215,0.0,8.0,94,0.17,,,0.33,0,HR-IXPWINDi_r2_v1.2.,2013-01-24 10:48:00,
2013-01-24 02:53:00,51.9,50.2,30.08,SSW,198,4.0,8.0,94,0.30,,,0.35,0,HR-IXPWINDi_r2_v1.2.,2013-01-24 10:53:00,
2013-01-24 02:58:00,51.8,50.3,30.08,South,184,0.0,7.0,95,0.16,,,0.36,0,HR-IXPWINDi_r2_v1.2.,2013-01-24 10:58:00,
2013-01-24 03:03:00,51.9,50.4,30.08,South,173,4.0,5.0,95,0.13,,,0.37,0,HR-IXPWINDi_r2_v1.2.,2013-01-24 11:03:00,
2013-01-24 03:08:00,52.1,50.6,30.08,SSE,165,5.0,5.0,95,0.13,,,0.39,0,HR-IXPWINDi_r2_v1.2.,2013-01-24 11:08:00,
2013-01-24 03:13:00,52.0,50.5,30.07,SSW,196,3.0,6.0,95,0.11,,,0.40,0,HR-IXPWINDi_r2_v1.2.,2013-01-24 11:13:00,
2013-01-24 03:19:00,52.0,50.5,30.07,South,181,2.0,6.0,95,0.10,,,0.40,0,HR-IXPWINDi_r2_v1.2.,2013-01-24 11:19:00,
2013-01-24 03:24:00,52.2,50.7,30.07,South,184,4.0,6.0,95,0.05,,,0.40,0,HR-IXPWINDi_r2_v1.2.,2013-01-24 11:24:00,
2013-01-24 03:29:00,52.1,50.6,30.06,South,173,3.0,5.0,95,0.04,,,0.41,0,HR-IXPWINDi_r2_v1.2.,2013-01-24 11:29:00,
2013-01-24 03:34:00,52.0,50.5,30.06,SSW,200,3.0,6.0,95,0.04,,,0.41,0,HR-IXPWINDi_r2_v1.2.,2013-01-24 11:34:00,
2013-01-24 03:40:00,52.1,50.6,30.06,South,182,3.0,6.0,95,0.04,,,0.41,0,HR-IXPWINDi_r2_v1.2.,2013-01-24 11:40:00,
2013-01-24 03:45:00,52.2,50.7,30.06,South,183,0.0,6.0,95,0.00,,,0.41,0,HR-IXPWINDi_r2_v1.2.,2013-01-24 11:45:00,
2013-01-24 03:50:00,52.2,50.7,30.06,South,187,3.0,6.0,95,0.00,,,0.42,0,HR-IXPWINDi_r2_v1.2.,2013-01-24 11:50:00,
2013-01-24 03:55:00,52.3,50.8,30.06,South,178,3.0,6.0,95,0.08,,,0.43,0,HR-IXPWINDi_r2_v1.2.,2013-01-24 11:55:00,
2013-01-24 04:01:00,52.1,50.6,30.06,SSW,193,2.0,6.0,95,0.08,,,0.43,0,HR-IXPWINDi_r2_v1.2.,2013-01-24 12:01:00,
2013-01-24 04:06:00,52.0,50.5,30.06,South,191,0.0,6.0,95,0.30,,,0.45,0,HR-IXPWINDi_r2_v1.2.,2013-01-24 12:06:00,
2013-01-24 04:11:00,52.0,50.5,30.07,South,181,0.0,6.0,95,0.20,,,0.47,0,HR-IXPWINDi_r2_v1.2.,2013-01-24 12:11:00,
2013-01-24 04:16:00,52.1,50.6,30.06,SW,225,3.0,4.0,95,0.12,,,0.48,0,HR-IXPWINDi_r2_v1.2.,2013-01-24 12:16:00,
2013-01-24 04:22:00,52.3,50.8,30.06,West,269,2.0,5.0,95,0.17,,,0.49,0,HR-IXPWINDi_r2_v1.2.,2013-01-24 12:22:00,
2013-01-24 04:27:00,52.4,50.9,30.07,SSE,163,3.0,5.0,95,0.23,,,0.51,0,HR-IXPWINDi_r2_v1.2.,2013-01-24 12:27:00,
2013-01-24 04:32:00,52.2,50.7,30.07,South,185,0.0,5.0,95,0.22,,,0.53,0,HR-IXPWINDi_r2_v1.2.,2013-01-24 12:32:00,
2013-01-24 04:37:00,52.2,50.7,30.07,South,185,0.0,5.0,95,0.17,,,0.55,0,HR-IXPWINDi_r2_v1.2.,2013-01-24 12:37:00,
2013-01-24 04:43:00,52.1,50.6,30.07,WSW,237,0.0,3.0,95,0.12,,,0.56,0,HR-IXPWINDi_r2_v1.2.,2013-01-24 12:43:00,
2013-01-24 04:48:00,52.2,50.7,30.07,WSW,237,0.0,3.0,95,0.16,,,0.57,0,HR-IXPWINDi_r2_v1.2.,2013-01-24 12:48:00,
2013-01-24 04:53:00,52.3,51.1,30.07,WSW,237,0.0,2.0,96,0.16,,,0.58,0,HR-IXPWINDi_r2_v1.2.,2013-01-24 12:53:00,
2013-01-24 04:58:00,52.3,51.1,30.07,SSW,193,0.0,3.0,96,0.14,,,0.59,0,HR-IXPWINDi_r2_v1.2.,2013-01-24 12:58:00,
2013-01-24 05:03:00,52.4,51.2,30.07,SSW,192,0.0,3.0,96,0.09,,,0.60,0,HR-IXPWINDi_r2_v1.2.,2013-01-24 13:03:00,
2013-01-24 05:08:00,52.4,51.2,30.07,SSW,193,1.0,3.0,96,0.09,,,0.61,0,HR-IXPWINDi_r2_v1.2.,2013-01-24 13:08:00,
2013-01-24 05:14:00,52.3,51.1,30.07,SSW,193,1.0,3.0,96,0.14,,,0.62,0,HR-IXPWINDi_r2_v1.2.,2013-01-24 13:14:00,
2013-01-24 05:19:00,52.4,51.2,30.07,South,172,1.0,3.0,96,0.13,,,0.63,0,HR-IXPWINDi_r2_v1.2.,2013-01-24 13:19:00,
2013-01-24 05:24:00,52.4,51.2,30.07,South,172,0.0,3.0,96,0.07,,,0.63,0,HR-IXPWINDi_r2_v1.2.,2013-01-24 13:24:00,
2013-01-24 05:29:00,52.5,51.3,30.07,South,172,3.0,3.0,96,0.04,,,0.63,0,HR-IXPWINDi_r2_v1.2.,2013-01-24 13:29:00,
2013-01-24 05:34:00,52.4,51.2,30.07,South,172,0.0,3.0,96,0.04,,,0.64,0,HR-IXPWINDi_r2_v1.2.,2013-01-24 13:34:00,
2013-01-24 05:39:00,52.4,51.2,30.07,South,172,0.0,2.0,96,0.08,,,0.65,0,HR-IXPWINDi_r2_v1.2.,2013-01-24 13:39:00,
2013-01-24 05:45:00,52.4,51.2,30.06,South,172,0.0,1.0,96,0.08,,,0.65,0,HR-IXPWINDi_r2_v1.2.,2013-01-24 13:45:00,
2013-01-24 05:50:00,52.5,51.3,30.07,South,185,2.0,4.0,96,0.06,,,0.66,0,HR-IXPWINDi_r2_v1.2.,2013-01-24 13:50:00,
2013-01-24 05:55:00,52.6,51.4,30.07,South,174,4.0,5.0,96,0.06,,,0.66,0,HR-IXPWINDi_r2_v1.2.,2013-01-24 13:55:00,
2013-01-24 06:00:00,52.7,51.5,30.07,South,171,3.0,5.0,96,0.05,,,0.66,0,HR-IXPWINDi_r2_v1.2.,2013-01-24 14:00:00,
2013-01-24 06:06:00,52.8,51.6,30.08,South,173,0.0,4.0,96,0.04,,,0.67,0,HR-IXPWINDi_r2_v1.2.,2013-01-24 14:06:00,
2013-01-24 06:11:00,52.8,51.6,30.08,South,185,0.0,4.0,96,0.07,,,0.68,0,HR-IXPWINDi_r2_v1.2.,2013-01-24 14:11:00,
2013-01-24 06:16:00,52.8,51.6,30.08,South,185,0.0,4.0,96,0.15,,,0.69,0,HR-IXPWINDi_r2_v1.2.,2013-01-24 14:16:00,
2013-01-24 06:21:00,52.7,51.5,30.08,South,185,0.0,1.0,96,0.17,,,0.70,0,HR-IXPWINDi_r2_v1.2.,2013-01-24 14:21:00,
2013-01-24 06:27:00,52.7,51.5,30.09,SSW,194,2.0,3.0,96,0.15,,,0.72,0,HR-IXPWINDi_r2_v1.2.,2013-01-24 14:27:00,
2013-01-24 06:32:00,52.9,51.7,30.09,South,171,3.0,5.0,96,0.13,,,0.73,0,HR-IXPWINDi_r2_v1.2.,2013-01-24 14:32:00,
2013-01-24 06:37:00,52.9,51.7,30.10,South,188,2.0,5.0,96,0.21,,,0.74,0,HR-IXPWINDi_r2_v1.2.,2013-01-24 14:37:00,
2013-01-24 06:43:00,53.0,51.8,30.10,South,169,0.0,6.0,96,0.13,,,0.76,0,HR-IXPWINDi_r2_v1.2.,2013-01-24 14:43:00,
2013-01-24 06:48:00,53.0,51.8,30.09,South,177,0.0,6.0,96,0.10,,,0.76,0,HR-IXPWINDi_r2_v1.2.,2013-01-24 14:48:00,
2013-01-24 06:53:00,52.7,51.5,30.09,South,177,0.0,2.0,96,0.21,,,0.78,0,HR-IXPWINDi_r2_v1.2.,2013-01-24 14:53:00,
2013-01-24 06:58:00,52.7,51.5,30.09,South,177,1.0,1.0,96,0.21,,,0.80,0,HR-IXPWINDi_r2_v1.2.,2013-01-24 14:58:00,
2013-01-24 07:03:00,52.7,51.5,30.09,South,177,0.0,1.0,96,0.15,,,0.82,0,HR-IXPWINDi_r2_v1.2.,2013-01-24 15:03:00,
2013-01-24 07:08:00,52.8,51.6,30.09,SW,218,0.0,2.0,96,0.14,,,0.83,0,HR-IXPWINDi_r2_v1.2.,2013-01-24 15:08:00,
2013-01-24 07:13:00,53.1,52.2,30.09,SSE,161,0.0,3.0,97,0.09,,,0.83,0,HR-IXPWINDi_r2_v1.2.,2013-01-24 15:13:00,
2013-01-24 07:18:00,53.3,52.4,30.10,SSW,198,2.0,5.0,97,0.07,,,0.84,0,HR-IXPWINDi_r2_v1.2.,2013-01-24 15:18:00,
2013-01-24 07:24:00,53.3,52.4,30.09,South,188,3.0,5.0,97,0.07,,,0.84,0,HR-IXPWINDi_r2_v1.2.,2013-01-24 15:24:00,
2013-01-24 07:29:00,53.2,52.0,30.09,South,181,0.0,5.0,96,0.06,,,0.85,9,HR-IXPWINDi_r2_v1.2.,2013-01-24 15:29:00,
2013-01-24 07:34:00,53.2,52.0,30.09,South,186,3.0,3.0,96,0.08,,,0.86,14,HR-IXPWINDi_r2_v1.2.,2013-01-24 15:34:00,
2013-01-24 07:39:00,53.3,52.1,30.09,SE,138,1.0,5.0,96,0.08,,,0.86,12,HR-IXPWINDi_r2_v1.2.,2013-01-24 15:39:00,
2013-01-24 07:44:00,53.5,52.6,30.09,SSW,196,4.0,5.0,97,0.05,,,0.86,11,HR-IXPWINDi_r2_v1.2.,2013-01-24 15:44:00,
2013-01-24 07:50:00,53.5,52.3,30.09,SSW,195,4.0,6.0,96,0.00,,,0.86,14,HR-IXPWINDi_r2_v1.2.,2013-01-24 15:50:00,
2013-01-24 07:55:00,53.7,52.8,30.09,South,190,5.0,6.0,97,0.00,,,0.86,18,HR-IXPWINDi_r2_v1.2.,2013-01-24 15:55:00,
2013-01-24 08:00:00,53.7,52.8,30.10,South,175,4.0,6.0,97,0.00,,,0.86,23,HR-IXPWINDi_r2_v1.2.,2013-01-24 16:00:00,
2013-01-24 08:05:00,53.7,52.8,30.10,South,173,3.0,6.0,97,0.00,,,0.86,23,HR-IXPWINDi_r2_v1.2.,2013-01-24 16:05:00,
2013-01-24 08:10:00,53.7,52.8,30.10,SSE,168,3.0,5.0,97,0.00,,,0.87,19,HR-IXPWINDi_r2_v1.2.,2013-01-24 16:10:00,
2013-01-24 08:16:00,53.7,52.8,30.11,South,182,4.0,5.0,97,0.00,,,0.87,18,HR-IXPWINDi_r2_v1.2.,2013-01-24 16:16:00,
2013-01-24 08:21:00,53.7,52.8,30.11,South,184,1.0,5.0,97,0.00,,,0.87,16,HR-IXPWINDi_r2_v1.2.,2013-01-24 16:21:00,
2013-01-24 08:26:00,53.7,52.8,30.12,South,186,2.0,6.0,97,0.00,,,0.87,16,HR-IXPWINDi_r2_v1.2.,2013-01-24 16:26:00,
2013-01-24 08:31:00,53.7,52.8,30.12,South,174,1.0,6.0,97,0.00,,,0.87,18,HR-IXPWINDi_r2_v1.2.,2013-01-24 16:31:00,
2013-01-24 08:36:00,53.7,52.8,30.12,SE,132,1.0,5.0,97,0.00,,,0.87,21,HR-IXPWINDi_r2_v1.2.,2013-01-24 16:36:00,
2013-01-24 08:41:00,53.8,52.9,30.13,South,175,1.0,4.0,97,0.00,,,0.88,21,HR-IXPWINDi_r2_v1.2.,2013-01-24 16:41:00,
2013-01-24 08:46:00,53.9,53.0,30.13,SSE,161,0.0,5.0,97,0.00,,,0.88,28,HR-IXPWINDi_r2_v1.2.,2013-01-24 16:46:00,
2013-01-24 08:51:00,54.0,53.1,30.13,East,95,1.0,5.0,97,0.05,,,0.89,35,HR-IXPWINDi_r2_v1.2.,2013-01-24 16:51:00,
2013-01-24 08:57:00,54.2,53.0,30.13,South,175,1.0,6.0,96,0.10,,,0.90,51,HR-IXPWINDi_r2_v1.2.,2013-01-24 16:57:00,
2013-01-24 09:02:00,54.4,53.5,30.13,South,175,0.0,6.0,97,0.10,,,0.90,62,HR-IXPWINDi_r2_v1.2.,2013-01-24 17:02:00,
2013-01-24 09:07:00,54.6,53.7,30.14,SSE,162,1.0,3.0,97,0.05,,,0.90,77,HR-IXPWINDi_r2_v1.2.,2013-01-24 17:07:00,
2013-01-24 09:12:00,54.9,54.0,30.14,SSE,161,0.0,4.0,97,0.04,,,0.90,93,HR-IXPWINDi_r2_v1.2.,2013-01-24 17:12:00,
2013-01-24 09:18:00,55.0,54.1,30.14,South,184,1.0,4.0,97,0.00,,,0.90,83,HR-IXPWINDi_r2_v1.2.,2013-01-24 17:18:00,
2013-01-24 09:23:00,55.1,53.9,30.14,SSW,193,0.0,4.0,96,0.00,,,0.90,93,HR-IXPWINDi_r2_v1.2.,2013-01-24 17:23:00,
2013-01-24 09:28:00,55.2,54.0,30.14,SSE,168,0.0,4.0,96,0.00,,,0.90,79,HR-IXPWINDi_r2_v1.2.,2013-01-24 17:28:00,
2013-01-24 09:33:00,55.3,54.1,30.14,SSE,161,1.0,7.0,96,0.00,,,0.90,90,HR-IXPWINDi_r2_v1.2.,2013-01-24 17:33:00,
2013-01-24 09:38:00,55.4,54.2,30.14,South,176,4.0,7.0,96,0.00,,,0.90,97,HR-IXPWINDi_r2_v1.2.,2013-01-24 17:38:00,
2013-01-24 09:43:00,55.5,54.3,30.14,SE,135,1.0,5.0,96,0.00,,,0.90,102,HR-IXPWINDi_r2_v1.2.,2013-01-24 17:43:00,
2013-01-24 09:49:00,55.7,54.5,30.14,South,169,4.0,5.0,96,0.00,,,0.90,90,HR-IXPWINDi_r2_v1.2.,2013-01-24 17:49:00,
2013-01-24 09:54:00,55.4,54.2,30.15,South,176,5.0,6.0,96,0.00,,,0.90,81,HR-IXPWINDi_r2_v1.2.,2013-01-24 17:54:00,
2013-01-24 09:59:00,55.4,54.2,30.15,SE,124,1.0,6.0,96,0.00,,,0.90,83,HR-IXPWINDi_r2_v1.2.,2013-01-24 17:59:00,
2013-01-24 10:04:00,55.3,54.1,30.15,South,173,3.0,6.0,96,0.00,,,0.90,79,HR-IXPWINDi_r2_v1.2.,2013-01-24 18:04:00,
2013-01-24 10:09:00,55.4,54.2,30.15,SSE,166,1.0,6.0,96,0.00,,,0.90,95,HR-IXPWINDi_r2_v1.2.,2013-01-24 18:09:00,
2013-01-24 10:15:00,55.4,54.2,30.16,SSE,154,2.0,7.0,96,0.00,,,0.91,105,HR-IXPWINDi_r2_v1.2.,2013-01-24 18:15:00,
2013-01-24 10:20:00,55.4,54.2,30.16,SSW,207,3.0,7.0,96,0.00,,,0.91,109,HR-IXPWINDi_r2_v1.2.,2013-01-24 18:20:00,
2013-01-24 10:25:00,55.4,54.2,30.16,South,178,1.0,4.0,96,0.04,,,0.92,109,HR-IXPWINDi_r2_v1.2.,2013-01-24 18:25:00,
2013-01-24 10:30:00,55.5,54.3,30.16,South,187,7.0,7.0,96,0.04,,,0.92,127,HR-IXPWINDi_r2_v1.2.,2013-01-24 18:30:00,
2013-01-24 10:36:00,55.6,54.4,30.16,South,186,5.0,7.0,96,0.04,,,0.92,155,HR-IXPWINDi_r2_v1.2.,2013-01-24 18:36:00,
2013-01-24 10:41:00,56.1,54.9,30.16,SSW,196,3.0,7.0,96,0.04,,,0.92,176,HR-IXPWINDi_r2_v1.2.,2013-01-24 18:41:00,
2013-01-24 10:46:00,56.3,55.1,30.16,South,172,1.0,7.0,96,0.00,,,0.92,171,HR-IXPWINDi_r2_v1.2.,2013-01-24 18:46:00,
2013-01-24 10:51:00,56.6,55.4,30.15,ESE,109,1.0,5.0,96,0.00,,,0.92,148,HR-IXPWINDi_r2_v1.2.,2013-01-24 18:51:00,
2013-01-24 10:56:00,56.1,54.9,30.15,East,85,6.0,7.0,96,0.00,,,0.92,127,HR-IXPWINDi_r2_v1.2.,2013-01-24 18:56:00,
2013-01-24 11:01:00,56.2,55.0,30.15,SSW,192,4.0,7.0,96,0.00,,,0.92,142,HR-IXPWINDi_r2_v1.2.,2013-01-24 19:01:00,
2013-01-24 11:06:00,56.4,55.2,30.15,SSE,165,2.0,6.0,96,0.00,,,0.92,153,HR-IXPWINDi_r2_v1.2.,2013-01-24 19:06:00,
2013-01-24 11:12:00,56.4,55.2,30.15,South,181,0.0,6.0,96,0.00,,,0.92,130,HR-IXPWINDi_r2_v1.2.,2013-01-24 19:12:00,
2013-01-24 11:17:00,56.2,54.7,30.15,SSE,157,0.0,6.0,95,0.00,,,0.92,105,HR-IXPWINDi_r2_v1.2.,2013-01-24 19:17:00,
2013-01-24 11:22:00,56.1,54.9,30.15,SSE,155,2.0,6.0,96,0.00,,,0.92,102,HR-IXPWINDi_r2_v1.2.,2013-01-24 19:22:00,
2013-01-24 11:27:00,56.2,55.0,30.15,South,182,4.0,5.0,96,0.00,,,0.92,121,HR-IXPWINDi_r2_v1.2.,2013-01-24 19:27:00,
2013-01-24 11:32:00,56.3,55.1,30.14,South,171,2.0,7.0,96,0.00,,,0.92,142,HR-IXPWINDi_r2_v1.2.,2013-01-24 19:32:00,
2013-01-24 11:37:00,56.2,55.0,30.14,South,181,2.0,8.0,96,0.00,,,0.93,171,HR-IXPWINDi_r2_v1.2.,2013-01-24 19:37:00,
2013-01-24 11:43:00,56.4,55.2,30.14,East,95,3.0,8.0,96,0.00,,,0.93,155,HR-IXPWINDi_r2_v1.2.,2013-01-24 19:43:00,
2013-01-24 11:48:00,56.6,55.4,30.14,South,180,1.0,5.0,96,0.00,,,0.93,139,HR-IXPWINDi_r2_v1.2.,2013-01-24 19:48:00,
2013-01-24 11:53:00,57.0,55.8,30.14,South,172,1.0,5.0,96,0.00,,,0.93,167,HR-IXPWINDi_r2_v1.2.,2013-01-24 19:53:00,
2013-01-24 11:58:00,57.2,56.0,30.14,SSE,167,2.0,5.0,96,0.00,,,0.93,192,HR-IXPWINDi_r2_v1.2.,2013-01-24 19:58:00,
2013-01-24 12:03:00,57.4,56.2,30.13,South,188,2.0,5.0,96,0.00,,,0.93,109,HR-IXPWINDi_r2_v1.2.,2013-01-24 20:03:00,
2013-01-24 12:08:00,57.3,55.8,30.13,SE,142,1.0,5.0,95,0.00,,,0.93,127,HR-IXPWINDi_r2_v1.2.,2013-01-24 20:08:00,
2013-01-24 12:14:00,57.5,56.3,30.13,SSE,153,1.0,5.0,96,0.00,,,0.93,183,HR-IXPWINDi_r2_v1.2.,2013-01-24 20:14:00,
2013-01-24 12:19:00,57.6,56.1,30.13,South,190,2.0,6.0,95,0.00,,,0.93,171,HR-IXPWINDi_r2_v1.2.,2013-01-24 20:19:00,
2013-01-24 12:24:00,57.6,56.1,30.13,ESE,104,0.0,8.0,95,0.00,,,0.93,195,HR-IXPWINDi_r2_v1.2.,2013-01-24 20:24:00,
2013-01-24 12:29:00,57.5,55.7,30.12,South,178,1.0,8.0,94,0.00,,,0.93,158,HR-IXPWINDi_r2_v1.2.,2013-01-24 20:29:00,
2013-01-24 12:34:00,57.6,55.8,30.12,South,170,0.0,8.0,94,0.00,,,0.93,165,HR-IXPWINDi_r2_v1.2.,2013-01-24 20:34:00,
2013-01-24 12:39:00,57.7,55.9,30.12,ENE,74,0.0,7.0,94,0.00,,,0.93,105,HR-IXPWINDi_r2_v1.2.,2013-01-24 20:39:00,
2013-01-24 12:45:00,57.6,55.5,30.12,South,185,0.0,9.0,93,0.00,,,0.93,134,HR-IXPWINDi_r2_v1.2.,2013-01-24 20:45:00,
2013-01-24 12:50:00,57.6,55.5,30.12,South,173,0.0,9.0,93,0.00,,,0.93,172,HR-IXPWINDi_r2_v1.2.,2013-01-24 20:50:00,
2013-01-24 12:55:00,58.0,55.9,30.12,South,188,2.0,6.0,93,0.00,,,0.93,188,HR-IXPWINDi_r2_v1.2.,2013-01-24 20:55:00,
2013-01-24 13:00:00,58.2,56.1,30.12,SE,128,1.0,5.0,93,0.00,,,0.93,155,HR-IXPWINDi_r2_v1.2.,2013-01-24 21:00:00,
2013-01-24 13:05:00,58.0,55.6,30.11,South,169,5.0,8.0,92,0.00,,,0.93,234,HR-IXPWINDi_r2_v1.2.,2013-01-24 21:05:00,
2013-01-24 13:11:00,58.1,55.7,30.11,East,91,0.0,9.0,92,0.00,,,0.93,137,HR-IXPWINDi_r2_v1.2.,2013-01-24 21:11:00,
2013-01-24 13:16:00,58.0,55.6,30.11,SSE,160,0.0,12.0,92,0.00,,,0.93,165,HR-IXPWINDi_r2_v1.2.,2013-01-24 21:16:00,
2013-01-24 13:21:00,58.4,56.3,30.10,SSW,207,1.0,12.0,93,0.00,,,0.93,200,HR-IXPWINDi_r2_v1.2.,2013-01-24 21:21:00,
2013-01-24 13:26:00,58.7,56.0,30.10,ENE,64,0.0,8.0,91,0.00,,,0.93,204,HR-IXPWINDi_r2_v1.2.,2013-01-24 21:26:00,
2013-01-24 13:32:00,59.4,56.7,30.10,SSE,167,1.0,8.0,91,0.00,,,0.93,209,HR-IXPWINDi_r2_v1.2.,2013-01-24 21:32:00,
2013-01-24 13:37:00,59.3,56.0,30.10,ENE,78,4.0,8.0,89,0.00,,,0.93,183,HR-IXPWINDi_r2_v1.2.,2013-01-24 21:37:00,
2013-01-24 13:42:00,59.4,56.1,30.10,ENE,76,5.0,10.0,89,0.00,,,0.93,174,HR-IXPWINDi_r2_v1.2.,2013-01-24 21:42:00,
2013-01-24 13:47:00,59.5,56.2,30.10,SE,132,2.0,10.0,89,0.00,,,0.93,169,HR-IXPWINDi_r2_v1.2.,2013-01-24 21:47:00,
2013-01-24 13:52:00,59.6,56.3,30.10,SSE,153,0.0,10.0,89,0.00,,,0.93,153,HR-IXPWINDi_r2_v1.2.,2013-01-24 21:52:00,
2013-01-24 13:57:00,59.7,56.7,30.10,SSE,167,0.0,7.0,90,0.00,,,0.93,199,HR-IXPWINDi_r2_v1.2.,2013-01-24 21:57:00,
2013-01-24 14:03:00,60.0,57.0,30.10,ESE,103,1.0,7.0,90,0.00,,,0.93,128,HR-IXPWINDi_r2_v1.2.,2013-01-24 22:03:00,
2013-01-24 14:08:00,59.8,56.8,30.10,South,180,5.0,6.0,90,0.00,,,0.93,107,HR-IXPWINDi_r2_v1.2.,2013-01-24 22:08:00,
2013-01-24 14:13:00,59.8,56.8,30.10,ENE,58,2.0,6.0,90,0.00,,,0.93,95,HR-IXPWINDi_r2_v1.2.,2013-01-24 22:13:00,
2013-01-24 14:18:00,59.8,56.8,30.09,South,172,1.0,5.0,90,0.00,,,0.93,114,HR-IXPWINDi_r2_v1.2.,2013-01-24 22:18:00,
2013-01-24 14:24:00,59.9,56.9,30.09,SSE,161,0.0,5.0,90,0.00,,,0.93,116,HR-IXPWINDi_r2_v1.2.,2013-01-24 22:24:00,
2013-01-24 14:29:00,59.9,57.2,30.09,South,171,0.0,3.0,91,0.00,,,0.93,107,HR-IXPWINDi_r2_v1.2.,2013-01-24 22:29:00,
2013-01-24 14:34:00,59.7,56.7,30.09,North,10,2.0,5.0,90,0.00,,,0.93,123,HR-IXPWINDi_r2_v1.2.,2013-01-24 22:34:00,
2013-01-24 14:40:00,60.0,56.7,30.09,ENE,65,2.0,5.0,89,0.00,,,0.93,127,HR-IXPWINDi_r2_v1.2.,2013-01-24 22:40:00,
2013-01-24 14:45:00,60.3,57.0,30.09,SSW,197,1.0,5.0,89,0.00,,,0.93,244,HR-IXPWINDi_r2_v1.2.,2013-01-24 22:45:00,
2013-01-24 14:50:00,60.7,57.1,30.09,SSW,197,1.0,5.0,88,0.00,,,0.93,172,HR-IXPWINDi_r2_v1.2.,2013-01-24 22:50:00,
2013-01-24 14:55:00,61.3,57.6,30.09,SSE,159,0.0,3.0,88,0.00,,,0.93,195,HR-IXPWINDi_r2_v1.2.,2013-01-24 22:55:00,
2013-01-24 15:00:00,61.4,57.7,30.09,SSW,206,0.0,5.0,88,0.00,,,0.93,113,HR-IXPWINDi_r2_v1.2.,2013-01-24 23:00:00,
2013-01-24 15:05:00,60.8,56.5,30.09,East,97,1.0,5.0,86,0.00,,,0.93,76,HR-IXPWINDi_r2_v1.2.,2013-01-24 23:05:00,
2013-01-24 15:11:00,60.5,56.5,30.09,SSE,155,1.0,7.0,87,0.00,,,0.93,98,HR-IXPWINDi_r2_v1.2.,2013-01-24 23:11:00,
2013-01-24 15:16:00,60.4,56.8,30.09,South,183,1.0,7.0,88,0.00,,,0.93,146,HR-IXPWINDi_r2_v1.2.,2013-01-24 23:16:00,
2013-01-24 15:21:00,60.9,57.3,30.10,South,186,0.0,7.0,88,0.00,,,0.93,121,HR-IXPWINDi_r2_v1.2.,2013-01-24 23:21:00,
2013-01-24 15:26:00,60.8,57.2,30.10,SSE,161,0.0,4.0,88,0.00,,,0.93,105,HR-IXPWINDi_r2_v1.2.,2013-01-24 23:26:00,
2013-01-24 15:32:00,60.6,56.6,30.10,SE,131,0.0,3.0,87,0.00,,,0.93,93,HR-IXPWINDi_r2_v1.2.,2013-01-24 23:32:00,
2013-01-24 15:37:00,60.7,56.7,30.10,SW,227,0.0,2.0,87,0.00,,,0.93,76,HR-IXPWINDi_r2_v1.2.,2013-01-24 23:37:00,
2013-01-24 15:42:00,60.6,56.3,30.10,SW,232,0.0,2.0,86,0.00,,,0.93,58,HR-IXPWINDi_r2_v1.2.,2013-01-24 23:42:00,
2013-01-24 15:47:00,60.7,56.7,30.09,SW,232,0.0,2.0,87,0.00,,,0.93,91,HR-IXPWINDi_r2_v1.2.,2013-01-24 23:47:00,
2013-01-24 15:52:00,60.9,56.6,30.09,SSE,154,0.0,2.0,86,0.00,,,0.93,105,HR-IXPWINDi_r2_v1.2.,2013-01-24 23:52:00,
2013-01-24 15:58:00,60.7,56.4,30.09,East,90,1.0,4.0,86,0.00,,,0.93,86,HR-IXPWINDi_r2_v1.2.,2013-01-24 23:58:00,
2013-01-24 16:03:00,60.5,56.2,30.09,NNE,30,0.0,4.0,86,0.00,,,0.93,67,HR-IXPWINDi_r2_v1.2.,2013-01-25 00:03:00,
2013-01-24 16:08:00,60.6,56.3,30.09,South,180,0.0,4.0,86,0.00,,,0.93,49,HR-IXPWINDi_r2_v1.2.,2013-01-25 00:08:00,
2013-01-24 16:13:00,60.5,56.2,30.09,South,187,0.0,3.0,86,0.00,,,0.93,49,HR-IXPWINDi_r2_v1.2.,2013-01-25 00:13:00,
2013-01-24 16:19:00,60.4,56.1,30.09,East,82,2.0,3.0,86,0.00,,,0.93,42,HR-IXPWINDi_r2_v1.2.,2013-01-25 00:19:00,
2013-01-24 16:24:00,60.5,55.9,30.09,South,180,2.0,3.0,85,0.00,,,0.93,30,HR-IXPWINDi_r2_v1.2.,2013-01-25 00:24:00,
2013-01-24 16:29:00,60.4,56.4,30.09,SSE,168,3.0,3.0,87,0.00,,,0.93,28,HR-IXPWINDi_r2_v1.2.,2013-01-25 00:29:00,
2013-01-24 16:34:00,60.2,56.2,30.10,South,174,1.0,3.0,87,0.00,,,0.93,25,HR-IXPWINDi_r2_v1.2.,2013-01-25 00:34:00,
2013-01-24 16:40:00,60.0,56.4,30.10,South,174,0.0,3.0,88,0.00,,,0.93,23,HR-IXPWINDi_r2_v1.2.,2013-01-25 00:40:00,
2013-01-24 16:45:00,60.0,56.4,30.10,South,173,0.0,3.0,88,0.00,,,0.93,19,HR-IXPWINDi_r2_v1.2.,2013-01-25 00:45:00,
2013-01-24 16:50:00,60.1,56.5,30.10,South,173,0.0,3.0,88,0.00,,,0.93,16,HR-IXPWINDi_r2_v1.2.,2013-01-25 00:50:00,
2013-01-24 16:55:00,60.1,56.5,30.10,South,173,0.0,1.0,88,0.00,,,0.93,12,HR-IXPWINDi_r2_v1.2.,2013-01-25 00:55:00,
2013-01-24 17:00:00,60.0,56.4,30.11,South,173,0.0,0.0,88,0.00,,,0.93,7,HR-IXPWINDi_r2_v1.2.,2013-01-25 01:00:00,
2013-01-24 17:05:00,60.0,56.4,30.11,South,174,0.0,1.0,88,0.00,,,0.93,0,HR-IXPWINDi_r2_v1.2.,2013-01-25 01:05:00,
2013-01-24 17:10:00,59.6,56.3,30.11,NE,44,1.0,3.0,89,0.00,,,0.93,0,HR-IXPWINDi_r2_v1.2.,2013-01-25 01:10:00,
2013-01-24 17:16:00,59.6,56.3,30.11,NE,44,1.0,3.0,89,0.00,,,0.93,0,HR-IXPWINDi_r2_v1.2.,2013-01-25 01:16:00,
2013-01-24 17:21:00,59.5,56.5,30.11,NE,44,1.0,2.0,90,0.00,,,0.93,0,HR-IXPWINDi_r2_v1.2.,2013-01-25 01:21:00,
2013-01-24 17:26:00,59.2,56.2,30.11,NNW,346,1.0,3.0,90,0.00,,,0.93,0,HR-IXPWINDi_r2_v1.2.,2013-01-25 01:26:00,
2013-01-24 17:31:00,59.1,56.4,30.11,NNW,345,0.0,3.0,91,0.00,,,0.93,0,HR-IXPWINDi_r2_v1.2.,2013-01-25 01:31:00,
2013-01-24 17:36:00,59.1,56.4,30.11,WNW,302,1.0,4.0,91,0.00,,,0.93,0,HR-IXPWINDi_r2_v1.2.,2013-01-25 01:36:00,
2013-01-24 17:42:00,59.1,56.4,30.10,NW,306,2.0,4.0,91,0.00,,,0.93,0,HR-IXPWINDi_r2_v1.2.,2013-01-25 01:42:00,
2013-01-24 17:47:00,59.0,56.3,30.10,WNW,301,2.0,4.0,91,0.00,,,0.93,0,HR-IXPWINDi_r2_v1.2.,2013-01-25 01:47:00,
2013-01-24 17:52:00,58.8,56.1,30.10,WNW,301,1.0,3.0,91,0.00,,,0.93,0,HR-IXPWINDi_r2_v1.2.,2013-01-25 01:52:00,
2013-01-24 17:57:00,58.7,56.0,30.10,WNW,301,0.0,2.0,91,0.00,,,0.93,0,HR-IXPWINDi_r2_v1.2.,2013-01-25 01:57:00,
2013-01-24 18:02:00,58.7,56.0,30.10,WNW,301,0.0,2.0,91,0.00,,,0.93,0,HR-IXPWINDi_r2_v1.2.,2013-01-25 02:02:00,
2013-01-24 18:07:00,58.6,55.9,30.10,WNW,301,0.0,1.0,91,0.00,,,0.93,0,HR-IXPWINDi_r2_v1.2.,2013-01-25 02:07:00,
2013-01-24 18:13:00,58.5,55.8,30.10,WNW,301,0.0,0.0,91,0.00,,,0.93,0,HR-IXPWINDi_r2_v1.2.,2013-01-25 02:13:00,
2013-01-24 18:18:00,58.3,55.6,30.10,WNW,301,0.0,0.0,91,0.00,,,0.93,0,HR-IXPWINDi_r2_v1.2.,2013-01-25 02:18:00,
2013-01-24 18:23:00,57.8,55.4,30.10,WNW,301,1.0,1.0,92,0.00,,,0.93,0,HR-IXPWINDi_r2_v1.2.,2013-01-25 02:23:00,
2013-01-24 18:28:00,57.7,55.6,30.10,WNW,301,0.0,2.0,93,0.00,,,0.93,0,HR-IXPWINDi_r2_v1.2.,2013-01-25 02:28:00,
2013-01-24 18:33:00,57.6,55.5,30.11,WNW,301,0.0,2.0,93,0.00,,,0.93,0,HR-IXPWINDi_r2_v1.2.,2013-01-25 02:33:00,
2013-01-24 18:39:00,57.5,55.1,30.10,WNW,301,0.0,2.0,92,0.00,,,0.93,0,HR-IXPWINDi_r2_v1.2.,2013-01-25 02:39:00,
2013-01-24 18:44:00,57.3,54.9,30.09,WNW,301,2.0,2.0,92,0.00,,,0.93,0,HR-IXPWINDi_r2_v1.2.,2013-01-25 02:44:00,
2013-01-24 18:49:00,57.1,55.0,30.10,WNW,301,0.0,2.0,93,0.00,,,0.93,0,HR-IXPWINDi_r2_v1.2.,2013-01-25 02:49:00,
2013-01-24 18:54:00,56.8,54.7,30.10,WNW,301,0.0,2.0,93,0.00,,,0.93,0,HR-IXPWINDi_r2_v1.2.,2013-01-25 02:54:00,
2013-01-24 19:00:00,56.7,54.9,30.10,WNW,301,0.0,1.0,94,0.00,,,0.93,0,HR-IXPWINDi_r2_v1.2.,2013-01-25 03:00:00,
2013-01-24 19:05:00,56.4,54.6,30.11,WNW,301,0.0,1.0,94,0.00,,,0.93,0,HR-IXPWINDi_r2_v1.2.,2013-01-25 03:05:00,
2013-01-24 19:10:00,56.1,54.3,30.10,WNW,301,0.0,0.0,94,0.00,,,0.93,0,HR-IXPWINDi_r2_v1.2.,2013-01-25 03:10:00,
2013-01-24 19:15:00,55.8,54.0,30.10,WNW,301,0.0,0.0,94,0.00,,,0.93,0,HR-IXPWINDi_r2_v1.2.,2013-01-25 03:15:00,
2013-01-24 19:21:00,55.4,53.6,30.10,WNW,301,0.0,0.0,94,0.00,,,0.93,0,HR-IXPWINDi_r2_v1.2.,2013-01-25 03:21:00,
2013-01-24 19:26:00,55.1,53.3,30.10,WNW,301,0.0,1.0,94,0.00,,,0.93,0,HR-IXPWINDi_r2_v1.2.,2013-01-25 03:26:00,
2013-01-24 19:31:00,55.2,53.7,30.10,WNW,301,1.0,1.0,95,0.00,,,0.93,0,HR-IXPWINDi_r2_v1.2.,2013-01-25 03:31:00,
2013-01-24 19:36:00,55.0,53.5,30.11,WNW,301,0.0,3.0,95,0.00,,,0.93,0,HR-IXPWINDi_r2_v1.2.,2013-01-25 03:36:00,
2013-01-24 19:41:00,55.4,53.9,30.11,NW,315,1.0,3.0,95,0.00,,,0.93,0,HR-IXPWINDi_r2_v1.2.,2013-01-25 03:41:00,
2013-01-24 19:46:00,55.5,54.0,30.11,NW,315,1.0,3.0,95,0.00,,,0.93,0,HR-IXPWINDi_r2_v1.2.,2013-01-25 03:46:00,
2013-01-24 19:51:00,55.6,54.1,30.11,NW,313,0.0,3.0,95,0.00,,,0.93,0,HR-IXPWINDi_r2_v1.2.,2013-01-25 03:51:00,
2013-01-24 19:56:00,55.4,53.9,30.11,NW,313,0.0,2.0,95,0.00,,,0.93,0,HR-IXPWINDi_r2_v1.2.,2013-01-25 03:56:00,
2013-01-24 20:02:00,55.3,53.8,30.11,NW,313,1.0,2.0,95,0.00,,,0.93,0,HR-IXPWINDi_r2_v1.2.,2013-01-25 04:02:00,
2013-01-24 20:07:00,55.4,54.2,30.11,NW,313,0.0,3.0,96,0.00,,,0.93,0,HR-IXPWINDi_r2_v1.2.,2013-01-25 04:07:00,
2013-01-24 20:12:00,55.1,53.6,30.11,NW,313,0.0,3.0,95,0.00,,,0.93,0,HR-IXPWINDi_r2_v1.2.,2013-01-25 04:12:00,
2013-01-24 20:18:00,55.4,54.2,30.11,NW,313,0.0,3.0,96,0.00,,,0.93,0,HR-IXPWINDi_r2_v1.2.,2013-01-25 04:18:00,
2013-01-24 20:23:00,55.1,53.6,30.11,NW,320,0.0,3.0,95,0.00,,,0.93,0,HR-IXPWINDi_r2_v1.2.,2013-01-25 04:23:00,
2013-01-24 20:28:00,55.1,53.6,30.11,NW,320,0.0,2.0,95,0.00,,,0.93,0,HR-IXPWINDi_r2_v1.2.,2013-01-25 04:28:00,
2013-01-24 20:34:00,55.3,54.1,30.11,NW,320,0.0,1.0,96,0.00,,,0.93,0,HR-IXPWINDi_r2_v1.2.,2013-01-25 04:34:00,
2013-01-24 20:39:00,55.3,54.1,30.11,NW,320,0.0,1.0,96,0.00,,,0.93,0,HR-IXPWINDi_r2_v1.2.,2013-01-25 04:39:00,
2013-01-24 20:44:00,54.9,53.4,30.11,NW,320,0.0,2.0,95,0.00,,,0.93,0,HR-IXPWINDi_r2_v1.2.,2013-01-25 04:44:00,
2013-01-24 20:49:00,55.0,53.8,30.11,NW,320,1.0,2.0,96,0.00,,,0.93,0,HR-IXPWINDi_r2_v1.2.,2013-01-25 04:49:00,
2013-01-24 20:54:00,55.0,53.8,30.10,NW,320,0.0,2.0,96,0.00,,,0.93,0,HR-IXPWINDi_r2_v1.2.,2013-01-25 04:54:00,
2013-01-24 20:59:00,54.8,53.6,30.11,NW,320,0.0,2.0,96,0.00,,,0.93,0,HR-IXPWINDi_r2_v1.2.,2013-01-25 04:59:00,
2013-01-24 21:00:00,54.8,53.6,30.11,NW,320,0.0,2.0,96,0.00,,,0.93,0,HR-IXPWINDi_r2_v1.2.,2013-01-25 05:00:00,
2013-01-24 21:05:00,54.9,53.7,30.11,NW,320,0.0,1.0,96,0.00,,,0.93,0,HR-IXPWINDi_r2_v1.2.,2013-01-25 05:05:00,
2013-01-24 21:10:00,54.8,53.6,30.11,NW,320,0.0,1.0,96,0.00,,,0.93,0,HR-IXPWINDi_r2_v1.2.,2013-01-25 05:10:00,
2013-01-24 21:15:00,55.0,53.8,30.11,NW,320,0.0,1.0,96,0.00,,,0.93,0,HR-IXPWINDi_r2_v1.2.,2013-01-25 05:15:00,
2013-01-24 21:21:00,55.3,54.1,30.11,NW,320,0.0,2.0,96,0.00,,,0.93,0,HR-IXPWINDi_r2_v1.2.,2013-01-25 05:21:00,
2013-01-24 21:26:00,55.3,54.1,30.11,NW,320,1.0,2.0,96,0.00,,,0.93,0,HR-IXPWINDi_r2_v1.2.,2013-01-25 05:26:00,
2013-01-24 21:31:00,55.4,54.2,30.11,NW,320,1.0,2.0,96,0.00,,,0.93,0,HR-IXPWINDi_r2_v1.2.,2013-01-25 05:31:00,
2013-01-24 21:36:00,55.3,54.1,30.11,NW,320,0.0,2.0,96,0.00,,,0.93,0,HR-IXPWINDi_r2_v1.2.,2013-01-25 05:36:00,
2013-01-24 21:41:00,55.7,54.5,30.12,NW,320,2.0,2.0,96,0.00,,,0.93,0,HR-IXPWINDi_r2_v1.2.,2013-01-25 05:41:00,
2013-01-24 21:47:00,55.9,54.7,30.12,NW,316,2.0,2.0,96,0.00,,,0.93,0,HR-IXPWINDi_r2_v1.2.,2013-01-25 05:47:00,
2013-01-24 21:52:00,56.0,54.8,30.12,NW,316,0.0,2.0,96,0.00,,,0.93,0,HR-IXPWINDi_r2_v1.2.,2013-01-25 05:52:00,
2013-01-24 21:57:00,55.9,54.7,30.12,NW,320,0.0,3.0,96,0.00,,,0.93,0,HR-IXPWINDi_r2_v1.2.,2013-01-25 05:57:00,
2013-01-24 22:02:00,55.9,54.7,30.12,NW,320,0.0,3.0,96,0.00,,,0.93,0,HR-IXPWINDi_r2_v1.2.,2013-01-25 06:02:00,
2013-01-24 22:08:00,55.8,54.6,30.13,NW,320,0.0,2.0,96,0.00,,,0.93,0,HR-IXPWINDi_r2_v1.2.,2013-01-25 06:08:00,
2013-01-24 22:13:00,55.8,54.6,30.12,NW,320,0.0,2.0,96,0.00,,,0.93,0,HR-IXPWINDi_r2_v1.2.,2013-01-25 06:13:00,
2013-01-24 22:18:00,55.9,54.7,30.12,NW,320,1.0,2.0,96,0.00,,,0.93,0,HR-IXPWINDi_r2_v1.2.,2013-01-25 06:18:00,
2013-01-24 22:23:00,56.1,54.9,30.12,NW,320,0.0,2.0,96,0.00,,,0.93,0,HR-IXPWINDi_r2_v1.2.,2013-01-25 06:23:00,
2013-01-24 22:29:00,56.3,55.1,30.12,NW,320,0.0,2.0,96,0.00,,,0.93,0,HR-IXPWINDi_r2_v1.2.,2013-01-25 06:29:00,
2013-01-24 22:34:00,56.4,55.2,30.12,NW,320,0.0,2.0,96,0.00,,,0.93,0,HR-IXPWINDi_r2_v1.2.,2013-01-25 06:34:00,
2013-01-24 22:39:00,56.2,55.0,30.12,NW,320,0.0,2.0,96,0.00,,,0.93,0,HR-IXPWINDi_r2_v1.2.,2013-01-25 06:39:00,
2013-01-24 22:44:00,56.2,55.0,30.12,NW,313,2.0,2.0,96,0.00,,,0.93,0,HR-IXPWINDi_r2_v1.2.,2013-01-25 06:44:00,
2013-01-24 22:49:00,56.4,55.2,30.12,NW,313,2.0,3.0,96,0.00,,,0.93,0,HR-IXPWINDi_r2_v1.2.,2013-01-25 06:49:00,
2013-01-24 22:55:00,56.5,55.3,30.12,NW,306,0.0,4.0,96,0.00,,,0.93,0,HR-IXPWINDi_r2_v1.2.,2013-01-25 06:55:00,
2013-01-24 23:00:00,56.4,54.9,30.12,NW,306,2.0,4.0,95,0.00,,,0.93,0,HR-IXPWINDi_r2_v1.2.,2013-01-25 07:00:00,
2013-01-24 23:05:00,56.4,54.9,30.12,NW,306,0.0,2.0,95,0.00,,,0.93,0,HR-IXPWINDi_r2_v1.2.,2013-01-25 07:05:00,
2013-01-24 23:10:00,56.4,54.9,30.12,NW,306,0.0,2.0,95,0.00,,,0.93,0,HR-IXPWINDi_r2_v1.2.,2013-01-25 07:10:00,
2013-01-24 23:16:00,56.3,54.8,30.12,NW,306,0.0,1.0,95,0.00,,,0.93,0,HR-IXPWINDi_r2_v1.2.,2013-01-25 07:16:00,
2013-01-24 23:21:00,56.3,54.8,30.12,NW,308,0.0,2.0,95,0.00,,,0.93,0,HR-IXPWINDi_r2_v1.2.,2013-01-25 07:21:00,
2013-01-24 23:26:00,56.2,54.7,30.12,NW,308,0.0,2.0,95,0.00,,,0.93,0,HR-IXPWINDi_r2_v1.2.,2013-01-25 07:26:00,
2013-01-24 23:31:00,56.4,54.9,30.12,WNW,295,1.0,4.0,95,0.00,,,0.93,0,HR-IXPWINDi_r2_v1.2.,2013-01-25 07:31:00,
2013-01-24 23:37:00,56.6,55.1,30.12,WNW,296,0.0,4.0,95,0.00,,,0.93,0,HR-IXPWINDi_r2_v1.2.,2013-01-25 07:37:00,
2013-01-24 23:42:00,56.6,55.1,30.12,WNW,296,0.0,3.0,95,0.00,,,0.93,0,HR-IXPWINDi_r2_v1.2.,2013-01-25 07:42:00,
2013-01-24 23:47:00,56.6,55.1,30.12,WNW,296,0.0,2.0,95,0.00,,,0.93,0,HR-IXPWINDi_r2_v1.2.,2013-01-25 07:47:00,
2013-01-24 23:53:00,56.4,54.9,30.12,WNW,296,0.0,2.0,95,0.00,,,0.93,0,HR-IXPWINDi_r2_v1.2.,2013-01-25 07:53:00,
2013-01-24 23:58:00,56.3,54.8,30.11,WNW,296,0.0,1.0,95,0.00,,,0.93,0,HR-IXPWINDi_r2_v1.2.,2013-01-25 07:58:00,